Time;durP1;ratioP1;P1;durP2;ratioP2;P2;SDS_P1;SDS_P2;PMS_P1;PMS_P2;Temp;Humidity;BMP_temperature;BMP_pressure;BME280_temperature;BME280_humidity;BME280_pressure;Samples;Min_cycle;Max_cycle;Signal;HPM_P1;HPM_P2
2021/05/11 00:02:16;;;;;;;7.88;4.10;;;15.80;89.50;;;;;;4977387;28;20047;-92
2021/05/11 00:04:42;;;;;;;9.38;4.05;;;15.80;90.00;;;;;;4976841;28;20403;-92
2021/05/11 00:07:08;;;;;;;10.27;3.60;;;15.70;89.30;;;;;;4977001;28;20050;-91
2021/05/11 00:09:37;;;;;;;9.25;3.70;;;15.70;88.80;;;;;;4976200;28;20046;-91
2021/05/11 00:12:06;;;;;;;8.40;4.10;;;15.70;89.00;;;;;;4975959;28;20053;-91
2021/05/11 00:14:31;;;;;;;10.10;3.85;;;15.60;89.10;;;;;;4976336;28;20129;-91
2021/05/11 00:16:57;;;;;;;10.40;4.50;;;15.60;89.80;;;;;;4976409;28;20162;-92
2021/05/11 00:19:23;;;;;;;11.75;3.60;;;15.50;90.00;;;;;;4976806;28;20047;-90
2021/05/11 00:21:49;;;;;;;10.68;4.20;;;15.50;88.40;;;;;;4975716;28;20101;-91
2021/05/11 00:24:16;;;;;;;9.27;3.97;;;15.40;89.40;;;;;;4976989;28;20150;-91
2021/05/11 00:26:42;;;;;;;9.27;4.00;;;15.40;90.20;;;;;;4976559;28;20058;-92
2021/05/11 00:29:08;;;;;;;11.07;3.80;;;15.40;90.20;;;;;;4976603;28;20054;-91
2021/05/11 00:31:34;;;;;;;10.80;3.72;;;15.40;89.70;;;;;;4976538;28;20138;-91
2021/05/11 00:33:59;;;;;;;8.70;3.80;;;15.30;89.20;;;;;;4975969;28;20043;-92
2021/05/11 00:36:25;;;;;;;11.30;3.83;;;15.30;90.00;;;;;;4976172;28;20153;-92
2021/05/11 00:38:51;;;;;;;9.18;3.85;;;15.30;90.20;;;;;;4976245;28;20042;-91
2021/05/11 00:41:17;;;;;;;9.20;3.80;;;15.30;90.20;;;;;;4975654;28;20062;-90
2021/05/11 00:43:46;;;;;;;8.45;3.40;;;15.30;90.30;;;;;;4976501;28;20074;-93
2021/05/11 00:46:13;;;;;;;10.57;3.70;;;15.20;90.20;;;;;;4976019;28;20499;-92
2021/05/11 00:48:40;;;;;;;10.13;3.80;;;15.20;90.00;;;;;;4975540;28;20065;-92
2021/05/11 00:51:07;;;;;;;8.15;3.63;;;15.20;89.70;;;;;;4975954;28;20047;-92
2021/05/11 00:53:34;;;;;;;10.13;3.67;;;15.20;89.90;;;;;;4976103;28;20472;-92
2021/05/11 00:56:00;;;;;;;9.40;3.55;;;15.20;89.40;;;;;;4975969;28;20059;-92
2021/05/11 00:58:28;;;;;;;7.53;3.47;;;15.10;89.90;;;;;;4976845;28;20058;-94
2021/05/11 01:00:54;;;;;;;11.27;3.40;;;15.20;90.20;;;;;;4976851;28;20086;-94
2021/05/11 01:03:19;;;;;;;14.05;3.90;;;15.10;89.40;;;;;;4976365;28;20082;-92
2021/05/11 01:05:45;;;;;;;10.07;3.67;;;15.10;88.80;;;;;;4976766;28;20118;-93
2021/05/11 01:08:13;;;;;;;9.43;3.70;;;15.10;89.70;;;;;;4976761;28;20051;-93
2021/05/11 01:10:39;;;;;;;10.68;3.80;;;15.10;90.30;;;;;;4975480;28;20369;-91
2021/05/11 01:13:05;;;;;;;9.40;3.58;;;15.10;90.40;;;;;;4975924;28;20057;-92
2021/05/11 01:15:31;;;;;;;12.20;4.20;;;15.10;90.40;;;;;;4975947;28;20050;-94
2021/05/11 01:18:05;;;;;;;9.07;3.70;;;15.10;90.10;;;;;;4975042;28;20134;-93
2021/05/11 01:20:43;;;;;;;8.93;3.80;;;15.00;90.20;;;;;;4975721;28;20054;-92
2021/05/11 01:26:02;;;;;;;10.98;3.97;;;14.90;90.40;;;;;;4975227;28;20046;-91
2021/05/11 01:47:31;;;;;;;12.90;4.65;;;14.90;90.90;;;;;;4961217;28;20093;-90
2021/05/11 01:52:49;;;;;;;10.13;4.60;;;14.80;90.70;;;;;;4962489;28;20047;-89
2021/05/11 01:58:13;;;;;;;8.07;4.57;;;14.90;90.90;;;;;;4965230;28;20384;-90
2021/05/11 02:22:44;;;;;;;10.90;5.28;;;14.60;90.80;;;;;;4974251;28;20054;-91
2021/05/11 02:25:13;;;;;;;10.18;5.38;;;14.60;90.80;;;;;;4967964;28;20082;-92
2021/05/11 02:27:39;;;;;;;10.02;4.95;;;14.70;91.00;;;;;;4968294;28;20498;-92
2021/05/11 02:30:09;;;;;;;9.95;5.20;;;14.60;91.00;;;;;;4974681;28;20047;-93
2021/05/11 02:32:40;;;;;;;10.43;5.40;;;14.60;91.00;;;;;;4974226;28;20048;-92
2021/05/11 02:35:11;;;;;;;7.50;4.85;;;14.60;91.10;;;;;;4975680;28;20051;-90
2021/05/11 02:37:37;;;;;;;10.68;5.55;;;14.60;90.90;;;;;;4959224;29;20051;-91
2021/05/11 02:40:08;;;;;;;9.98;5.43;;;14.60;91.30;;;;;;4959082;28;20085;-90
2021/05/11 02:42:35;;;;;;;9.55;5.35;;;14.60;91.00;;;;;;4959069;28;20135;-91
2021/05/11 02:45:02;;;;;;;8.55;5.40;;;14.60;91.00;;;;;;4958932;28;20055;-90
2021/05/11 02:47:28;;;;;;;9.85;5.65;;;14.60;90.90;;;;;;4959089;28;20100;-91
2021/05/11 02:49:53;;;;;;;10.45;5.70;;;14.60;90.90;;;;;;4957956;28;20051;-90
2021/05/11 02:52:19;;;;;;;10.90;5.80;;;14.60;91.00;;;;;;4958963;28;20142;-92
2021/05/11 02:54:45;;;;;;;8.70;5.68;;;14.50;91.00;;;;;;4964317;28;20050;-94
2021/05/11 02:57:10;;;;;;;9.10;5.78;;;14.50;91.00;;;;;;4978333;28;20046;-94
2021/05/11 02:59:36;;;;;;;9.00;5.20;;;14.50;91.40;;;;;;4978672;28;20047;-92
2021/05/11 03:02:03;;;;;;;9.23;6.00;;;14.50;90.90;;;;;;4978210;28;20109;-91
2021/05/11 03:04:28;;;;;;;10.82;6.25;;;14.50;90.90;;;;;;4978013;28;20043;-91
2021/05/11 03:06:57;;;;;;;9.52;6.10;;;14.50;91.00;;;;;;4977645;28;20138;-92
2021/05/11 03:09:26;;;;;;;9.65;6.43;;;14.40;91.00;;;;;;4977811;28;20593;-93
2021/05/11 03:11:54;;;;;;;10.43;5.95;;;14.40;90.90;;;;;;4978016;28;20050;-94
2021/05/11 03:14:19;;;;;;;8.65;5.60;;;14.40;90.80;;;;;;4978088;28;20070;-91
2021/05/11 03:16:46;;;;;;;9.93;5.70;;;14.40;90.80;;;;;;4977366;28;20054;-94
2021/05/11 03:19:12;;;;;;;10.60;6.07;;;14.40;91.00;;;;;;4978885;28;20047;-94
2021/05/11 03:21:37;;;;;;;8.25;5.35;;;14.30;90.70;;;;;;4978449;28;20472;-95
2021/05/11 03:24:04;;;;;;;10.20;5.75;;;14.30;90.50;;;;;;4978625;28;20057;-92
2021/05/11 03:26:29;;;;;;;8.73;5.30;;;14.30;90.70;;;;;;4977385;28;20054;-93
2021/05/11 03:28:55;;;;;;;9.50;5.43;;;14.30;90.50;;;;;;4977303;28;20055;-95
2021/05/11 03:31:21;;;;;;;8.95;5.40;;;14.30;90.40;;;;;;4977888;28;20078;-94
2021/05/11 03:33:46;;;;;;;7.80;5.20;;;14.30;90.60;;;;;;4964451;28;20051;-93
2021/05/11 03:36:20;;;;;;;9.82;5.50;;;14.20;90.60;;;;;;4977514;28;20050;-92
2021/05/11 03:38:49;;;;;;;7.57;4.70;;;14.20;90.70;;;;;;4977180;28;20064;-94
2021/05/11 03:41:16;;;;;;;8.15;5.30;;;14.20;90.60;;;;;;4978043;28;20061;-94
2021/05/11 03:43:51;;;;;;;8.45;5.38;;;14.20;90.70;;;;;;4977845;28;20521;-94
2021/05/11 03:46:17;;;;;;;8.32;5.30;;;14.20;90.80;;;;;;4977154;28;20051;-96
2021/05/11 03:48:58;;;;;;;8.82;5.22;;;14.20;91.00;;;;;;4987477;28;20058;-96
2021/05/11 03:51:33;;;;;;;8.75;5.00;;;14.20;90.90;;;;;;4996047;28;20101;-96
2021/05/11 03:53:59;;;;;;;8.15;4.90;;;14.20;91.10;;;;;;4981719;28;20486;-94
2021/05/11 03:56:37;;;;;;;6.50;4.68;;;14.20;91.10;;;;;;4978247;28;20066;-94
2021/05/11 03:59:04;;;;;;;8.13;4.90;;;14.20;91.10;;;;;;4977824;28;20499;-93
2021/05/11 04:01:36;;;;;;;7.47;4.30;;;14.20;91.20;;;;;;4978020;28;20050;-94
2021/05/11 04:04:14;;;;;;;8.55;4.45;;;14.20;91.00;;;;;;4978076;28;20051;-94
2021/05/11 04:06:44;;;;;;;5.90;4.28;;;14.10;90.90;;;;;;4977352;28;20066;-93
2021/05/11 04:09:17;;;;;;;6.20;4.15;;;14.10;91.00;;;;;;4977765;28;20129;-94
2021/05/11 04:17:12;;;;;;;8.45;4.70;;;14.10;91.00;;;;;;4977335;28;20054;-93
2021/05/11 04:19:38;;;;;;;8.13;4.60;;;14.10;91.10;;;;;;4977287;28;20062;-92
2021/05/11 04:22:03;;;;;;;10.80;4.38;;;14.10;91.50;;;;;;4977477;28;20133;-92
2021/05/11 04:24:29;;;;;;;7.18;3.78;;;14.00;91.10;;;;;;4977599;28;20050;-91
2021/05/11 04:27:05;;;;;;;7.07;4.30;;;14.00;91.10;;;;;;4976719;28;20061;-93
2021/05/11 04:29:31;;;;;;;5.93;3.50;;;14.00;91.00;;;;;;4977460;28;20126;-93
2021/05/11 04:31:57;;;;;;;6.65;3.88;;;14.00;91.10;;;;;;4977190;28;20198;-94
2021/05/11 04:34:39;;;;;;;6.47;3.85;;;14.00;91.10;;;;;;4977261;28;20054;-94
2021/05/11 04:37:05;;;;;;;5.75;3.53;;;14.00;91.20;;;;;;4976936;28;20054;-92
2021/05/11 04:39:36;;;;;;;5.22;3.40;;;14.00;91.10;;;;;;4976995;28;20050;-92
2021/05/11 04:42:16;;;;;;;7.05;3.60;;;13.90;91.00;;;;;;4976641;28;20058;-93
2021/05/11 04:44:42;;;;;;;7.03;3.50;;;13.90;90.90;;;;;;4977073;28;20077;-93
2021/05/11 04:47:14;;;;;;;5.10;3.08;;;13.90;90.90;;;;;;4976440;28;20046;-92
2021/05/11 04:49:50;;;;;;;5.35;3.70;;;13.90;90.80;;;;;;4974591;28;20078;-93
2021/05/11 04:52:15;;;;;;;6.00;3.38;;;13.90;91.00;;;;;;4977120;28;20047;-93
2021/05/11 04:54:41;;;;;;;6.05;3.60;;;13.90;90.90;;;;;;4975834;28;20491;-92
2021/05/11 04:57:07;;;;;;;6.57;3.45;;;13.90;90.90;;;;;;4976273;28;20047;-93
2021/05/11 04:59:33;;;;;;;6.60;3.45;;;13.90;90.90;;;;;;4975786;28;20047;-92
2021/05/11 05:02:10;;;;;;;5.70;3.25;;;13.90;90.90;;;;;;4976006;28;20059;-94
2021/05/11 05:04:38;;;;;;;5.70;3.63;;;13.80;91.00;;;;;;4976860;28;20046;-95
2021/05/11 05:07:03;;;;;;;5.85;3.58;;;13.80;91.00;;;;;;4977184;28;20426;-94
2021/05/11 05:09:30;;;;;;;5.50;3.70;;;13.80;90.90;;;;;;4977360;28;20113;-95
2021/05/11 05:12:08;;;;;;;6.40;3.47;;;13.80;91.00;;;;;;4976625;28;20050;-95
2021/05/11 05:14:34;;;;;;;6.60;3.17;;;13.80;90.80;;;;;;4977481;28;20046;-95
2021/05/11 05:16:59;;;;;;;5.60;3.05;;;13.80;90.80;;;;;;4976347;28;20157;-95
2021/05/11 05:19:39;;;;;;;5.80;3.38;;;13.80;90.90;;;;;;4975960;28;20074;-93
2021/05/11 05:22:06;;;;;;;6.97;3.40;;;13.80;90.90;;;;;;4976500;28;20043;-93
2021/05/11 05:24:40;;;;;;;7.15;4.25;;;13.80;91.10;;;;;;4968305;28;20051;-96
2021/05/11 05:27:23;;;;;;;5.45;3.40;;;13.80;90.70;;;;;;4975620;28;20082;-94
2021/05/11 05:29:54;;;;;;;;;;;13.80;90.80;;;;;;4979066;28;20112;-93
2021/05/11 05:32:20;;;;;;;5.90;3.25;;;13.70;90.10;;;;;;4995411;28;19922;-93
2021/05/11 05:35:04;;;;;;;6.88;4.00;;;13.70;91.00;;;;;;4993316;28;20561;-93
2021/05/11 05:37:31;;;;;;;7.80;4.40;;;13.70;90.70;;;;;;4983934;28;20141;-96
2021/05/11 05:40:13;;;;;;;5.30;3.45;;;13.70;90.70;;;;;;4973649;28;20125;-94
2021/05/11 05:42:40;;;;;;;;;;;13.70;90.60;;;;;;4977092;28;20059;-95
2021/05/11 05:45:06;;;;;;;7.80;4.82;;;13.60;90.10;;;;;;4982303;28;19972;-91
2021/05/11 05:47:52;;;;;;;7.47;5.15;;;13.70;90.70;;;;;;4976881;28;20406;-93
2021/05/11 05:50:31;;;;;;;6.18;3.80;;;13.70;90.80;;;;;;4977106;28;20063;-94
2021/05/11 05:53:22;;;;;;;5.85;4.40;;;13.70;91.00;;;;;;4976652;28;20511;-94
2021/05/11 05:55:47;;;;;;;6.47;4.32;;;13.70;91.00;;;;;;4977843;28;20066;-94
2021/05/11 05:58:24;;;;;;;6.28;3.50;;;13.70;91.10;;;;;;4981005;28;20051;-90
2021/05/11 06:00:54;;;;;;;6.47;3.63;;;13.70;91.00;;;;;;4973393;28;20055;-95
2021/05/11 06:06:09;;;;;;;6.90;3.90;;;13.70;90.80;;;;;;4977003;28;20483;-94
2021/05/11 06:08:38;;;;;;;5.00;3.25;;;13.70;90.90;;;;;;4977400;28;20476;-96
2021/05/11 06:13:38;;;;;;;6.47;3.65;;;13.70;90.90;;;;;;4973655;28;20047;-95
2021/05/11 06:18:51;;;;;;;6.90;4.03;;;13.70;91.00;;;;;;5004048;28;20043;-95
2021/05/11 06:21:18;;;;;;;6.40;4.20;;;13.70;90.90;;;;;;4988322;28;20078;-96
2021/05/11 06:23:43;;;;;;;6.20;3.70;;;13.70;91.00;;;;;;4990107;28;20399;-94
2021/05/11 06:26:10;;;;;;;7.10;4.10;;;13.70;91.00;;;;;;4976876;28;20137;-95
2021/05/11 06:28:39;;;;;;;8.18;4.50;;;13.70;91.10;;;;;;4968318;28;20047;-91
2021/05/11 06:31:05;;;;;;;5.97;3.72;;;13.70;91.00;;;;;;4967958;28;20050;-91
2021/05/11 06:33:31;;;;;;;6.90;3.50;;;13.70;91.00;;;;;;4980645;28;20150;-93
2021/05/11 06:35:58;;;;;;;6.75;3.88;;;13.70;90.80;;;;;;4990065;28;20510;-90
2021/05/11 06:38:24;;;;;;;6.03;3.75;;;13.70;90.60;;;;;;4972919;28;20127;-91
2021/05/11 06:40:53;;;;;;;5.13;3.10;;;13.70;90.60;;;;;;4981861;28;20051;-96
2021/05/11 06:43:36;;;;;;;5.57;3.88;;;13.70;90.60;;;;;;4991910;28;20050;-96
2021/05/11 06:55:17;;;;;;;6.65;3.80;;;13.70;91.00;;;;;;5017803;28;20178;-96
2021/05/11 07:13:18;;;;;;;5.32;3.45;;;13.80;91.30;;;;;;5329602;23;20064;-94
2021/05/11 07:15:46;;;;;;;6.00;3.22;;;13.80;91.30;;;;;;5035618;28;20049;-95
2021/05/11 07:18:20;;;;;;;4.40;2.53;;;13.80;91.60;;;;;;5038320;28;20056;-93
2021/05/11 07:20:55;;;;;;;4.63;2.72;;;13.80;91.30;;;;;;5037346;28;20049;-96
2021/05/11 07:23:21;;;;;;;5.72;2.90;;;13.90;91.30;;;;;;5040162;28;20057;-95
2021/05/11 07:26:25;;;;;;;4.95;2.60;;;13.90;91.30;;;;;;5040837;28;20127;-94
2021/05/11 07:31:41;;;;;;;5.30;2.10;;;13.90;91.40;;;;;;5044210;28;20478;-95
2021/05/11 07:34:22;;;;;;;4.53;2.42;;;13.90;91.30;;;;;;5037006;28;20047;-93
2021/05/11 07:36:48;;;;;;;4.47;2.47;;;13.90;91.30;;;;;;5043224;28;20049;-93
2021/05/11 07:39:26;;;;;;;5.47;2.05;;;13.90;91.30;;;;;;5036701;28;20045;-92
2021/05/11 07:41:52;;;;;;;5.28;2.20;;;14.00;91.30;;;;;;5036960;28;20053;-93
2021/05/11 07:44:18;;;;;;;4.15;2.00;;;14.00;91.40;;;;;;5026913;28;20473;-91
2021/05/11 08:14:49;;;;;;;5.10;2.40;;;14.20;91.40;;;;;;5022513;28;20393;-96
2021/05/11 08:17:31;;;;;;;4.72;2.15;;;14.20;91.40;;;;;;5030703;28;20045;-95
2021/05/11 08:28:30;;;;;;;5.70;2.63;;;14.30;91.30;;;;;;5033322;28;20038;-96
2021/05/11 08:31:07;;;;;;;5.20;2.63;;;14.40;91.30;;;;;;5036314;28;20474;-96
2021/05/11 08:33:39;;;;;;;4.70;2.50;;;14.30;91.40;;;;;;5032400;28;20045;-95
2021/05/11 08:36:26;;;;;;;5.60;2.70;;;14.40;91.30;;;;;;5025953;28;20096;-96
2021/05/11 08:38:56;;;;;;;5.40;2.50;;;14.40;91.30;;;;;;5061675;28;20064;-95
2021/05/11 08:41:38;;;;;;;4.10;2.22;;;14.50;91.30;;;;;;5060129;28;20577;-94
2021/05/11 08:44:19;;;;;;;5.85;2.90;;;14.50;91.10;;;;;;5069841;28;20053;-95
2021/05/11 08:46:45;;;;;;;4.72;2.30;;;14.50;91.30;;;;;;5050759;28;20054;-96
2021/05/11 08:49:38;;;;;;;5.60;2.50;;;14.50;91.20;;;;;;5043109;28;20046;-96
2021/05/11 08:52:31;;;;;;;5.80;2.70;;;14.60;91.30;;;;;;5048309;28;20080;-94
2021/05/11 09:25:40;;;;;;;4.07;1.80;;;15.30;90.40;;;;;;5014632;28;20072;-94
2021/05/11 09:28:48;;;;;;;3.80;1.60;;;15.40;90.20;;;;;;5016934;28;20092;-95
2021/05/11 09:34:57;;;;;;;3.00;1.40;;;15.50;90.00;;;;;;4977209;28;20052;-93
2021/05/11 09:57:07;;;;;;;3.92;1.40;;;16.20;88.60;;;;;;5006800;28;20065;-92
2021/05/11 10:31:51;;;;;;;3.83;0.85;;;16.90;85.00;;;;;;5001148;28;20490;-89
2021/05/11 10:48:33;;;;;;;3.08;0.98;;;17.10;85.90;;;;;;5004912;28;20045;-83
2021/05/11 10:50:59;;;;;;;2.42;0.93;;;17.10;85.80;;;;;;5010770;28;20050;-85
2021/05/11 10:53:58;;;;;;;2.05;0.90;;;17.20;86.50;;;;;;5007915;28;20124;-86
2021/05/11 10:56:26;;;;;;;2.60;0.80;;;17.20;86.10;;;;;;5007999;28;20045;-86
2021/05/11 11:01:38;;;;;;;2.95;0.82;;;17.30;86.40;;;;;;5010645;28;20078;-89
2021/05/11 11:04:16;;;;;;;1.60;0.80;;;17.30;86.30;;;;;;5012449;28;20065;-89
2021/05/11 11:07:01;;;;;;;2.38;1.00;;;17.30;86.00;;;;;;5004990;28;20120;-88
2021/05/11 11:09:35;;;;;;;2.25;0.90;;;17.40;86.30;;;;;;5006579;28;20474;-86
2021/05/11 11:12:03;;;;;;;2.15;0.82;;;17.40;86.00;;;;;;5011851;28;20045;-87
2021/05/11 11:14:43;;;;;;;2.13;0.90;;;17.50;86.30;;;;;;5010348;28;20137;-87
2021/05/11 11:17:10;;;;;;;2.30;0.70;;;17.50;86.70;;;;;;5011994;28;20134;-87
2021/05/11 11:19:40;;;;;;;2.78;0.90;;;17.60;85.80;;;;;;5012558;28;20133;-88
2021/05/11 11:24:58;;;;;;;2.22;0.88;;;17.70;86.70;;;;;;5013417;28;20049;-87
2021/05/11 11:27:29;;;;;;;2.15;0.75;;;17.70;86.60;;;;;;5012221;28;20132;-87
2021/05/11 11:30:01;;;;;;;2.20;0.98;;;17.70;86.40;;;;;;5010224;28;20512;-87
2021/05/11 11:32:27;;;;;;;2.00;0.80;;;17.80;86.40;;;;;;5011973;28;20136;-87
2021/05/11 11:34:54;;;;;;;1.67;0.80;;;17.80;86.10;;;;;;5014915;28;20049;-87
2021/05/11 11:37:22;;;;;;;2.13;0.90;;;17.90;86.10;;;;;;5012318;28;20056;-87
2021/05/11 11:39:53;;;;;;;2.33;0.90;;;17.90;86.10;;;;;;5013092;28;20121;-87
2021/05/11 11:42:40;;;;;;;3.35;0.70;;;17.90;85.80;;;;;;5007716;28;20046;-85
2021/05/11 11:45:12;;;;;;;3.08;1.00;;;17.90;86.40;;;;;;5008605;28;20053;-86
2021/05/11 11:47:50;;;;;;;2.92;1.00;;;18.00;86.70;;;;;;5012355;28;20044;-86
2021/05/11 11:50:16;;;;;;;1.95;0.93;;;18.00;86.20;;;;;;5014984;28;20048;-86
2021/05/11 12:00:11;;;;;;;4.60;1.05;;;18.10;86.30;;;;;;5011037;28;20046;-86
2021/05/11 12:02:37;;;;;;;1.73;0.80;;;18.10;85.90;;;;;;5005608;28;20049;-88
2021/05/11 12:05:14;;;;;;;2.33;0.90;;;18.10;86.70;;;;;;5008894;28;20046;-86
2021/05/11 12:10:56;;;;;;;2.10;0.95;;;18.10;86.20;;;;;;5001238;28;20049;-85
2021/05/11 12:13:24;;;;;;;2.30;1.10;;;18.10;87.00;;;;;;5010655;28;20080;-84
2021/05/11 12:16:19;;;;;;;3.72;1.30;;;18.10;87.30;;;;;;5011255;28;20039;-85
2021/05/11 12:19:06;;;;;;;3.05;1.33;;;18.10;85.80;;;;;;5013584;28;20054;-83
2021/05/11 12:21:53;;;;;;;4.20;1.30;;;18.10;87.00;;;;;;4998178;28;20396;-87
2021/05/11 12:24:22;;;;;;;1.83;1.17;;;18.10;87.20;;;;;;5008156;28;20120;-85
2021/05/11 12:26:48;;;;;;;2.25;1.17;;;18.10;87.10;;;;;;5005287;28;20056;-87
2021/05/11 12:29:16;;;;;;;2.50;1.40;;;18.20;87.40;;;;;;4995495;28;20145;-86
2021/05/11 12:31:43;;;;;;;2.90;1.30;;;18.20;87.70;;;;;;5005420;28;20057;-86
2021/05/11 12:34:12;;;;;;;2.53;1.30;;;18.20;87.40;;;;;;5008470;28;20050;-87
2021/05/11 12:36:51;;;;;;;2.30;1.20;;;18.20;87.90;;;;;;5003528;28;20058;-85
2021/05/11 12:39:47;;;;;;;2.95;1.30;;;18.20;87.70;;;;;;4998896;28;20042;-85
2021/05/11 12:42:25;;;;;;;3.42;1.38;;;18.20;87.70;;;;;;4999675;28;20050;-85
2021/05/11 12:45:20;;;;;;;2.33;1.27;;;18.20;87.30;;;;;;5014121;28;20054;-84
2021/05/11 12:47:55;;;;;;;2.63;1.27;;;18.20;87.30;;;;;;4996715;28;20054;-84
2021/05/11 12:50:30;;;;;;;3.10;1.38;;;18.20;87.20;;;;;;5012358;28;20404;-85
2021/05/11 12:53:02;;;;;;;2.28;1.15;;;18.20;87.80;;;;;;5001651;28;20108;-91
2021/05/11 12:56:14;;;;;;;2.80;1.25;;;18.20;87.60;;;;;;5010777;28;20045;-83
2021/05/11 13:01:55;;;;;;;2.70;1.27;;;18.30;87.80;;;;;;5013200;28;20050;-84
2021/05/11 13:15:23;;;;;;;2.38;1.30;;;18.30;87.90;;;;;;4999873;28;20401;-86
2021/05/11 13:20:36;;;;;;;5.28;1.30;;;18.20;87.90;;;;;;5006735;28;20069;-87
2021/05/11 13:25:42;;;;;;;3.65;1.50;;;18.20;88.00;;;;;;5009592;28;20485;-84
2021/05/11 13:28:13;;;;;;;2.45;1.33;;;18.20;88.00;;;;;;5012806;28;20049;-86
2021/05/11 13:33:33;;;;;;;2.13;1.20;;;18.20;88.10;;;;;;5009431;28;20115;-83
2021/05/11 13:35:59;;;;;;;2.95;1.50;;;18.20;87.40;;;;;;4997113;28;20126;-83
2021/05/11 13:38:24;;;;;;;3.08;1.20;;;18.20;87.90;;;;;;5013141;28;20136;-84
2021/05/11 13:40:51;;;;;;;2.97;1.20;;;18.20;88.10;;;;;;5001825;28;20050;-85
2021/05/11 13:43:16;;;;;;;2.83;1.17;;;18.20;88.10;;;;;;5007534;28;20052;-83
2021/05/11 13:45:42;;;;;;;2.97;1.27;;;18.20;87.80;;;;;;5004613;28;20042;-83
2021/05/11 13:48:21;;;;;;;3.38;1.48;;;18.20;88.00;;;;;;5007838;28;20472;-82
2021/05/11 13:51:21;;;;;;;3.38;1.33;;;18.20;87.80;;;;;;5002640;28;20053;-83
2021/05/11 13:53:44;;;;;;;2.20;1.27;;;18.20;88.00;;;;;;5003117;28;20417;-82
2021/05/11 13:56:19;;;;;;;2.90;1.45;;;18.20;88.30;;;;;;5006252;28;20151;-83
2021/05/11 14:01:47;;;;;;;2.50;1.30;;;18.20;87.70;;;;;;5003090;28;20451;-84
2021/05/11 14:04:13;;;;;;;2.57;1.20;;;18.20;87.70;;;;;;5006186;28;20077;-84
2021/05/11 14:06:40;;;;;;;3.25;1.50;;;18.20;88.00;;;;;;5007689;28;20490;-84
2021/05/11 14:09:09;;;;;;;3.70;1.48;;;18.20;88.20;;;;;;5012639;28;20509;-83
2021/05/11 14:11:36;;;;;;;2.55;1.23;;;18.20;88.00;;;;;;4995516;28;20144;-83
2021/05/11 14:14:02;;;;;;;3.10;1.50;;;18.20;88.00;;;;;;5008473;28;20050;-84
2021/05/11 14:16:28;;;;;;;2.42;1.30;;;18.10;87.80;;;;;;5001189;28;20161;-84
2021/05/11 14:18:56;;;;;;;4.45;1.30;;;18.10;87.60;;;;;;5011398;28;20045;-83
2021/05/11 14:21:23;;;;;;;2.70;1.23;;;18.10;88.00;;;;;;5012224;28;20120;-83
2021/05/11 14:23:52;;;;;;;2.45;1.20;;;18.10;88.20;;;;;;5005525;28;20057;-84
2021/05/11 14:26:21;;;;;;;3.20;1.27;;;18.10;88.30;;;;;;5000332;28;20042;-84
2021/05/11 14:28:47;;;;;;;3.60;1.50;;;18.10;87.30;;;;;;5009384;28;20057;-84
2021/05/11 14:31:13;;;;;;;2.63;1.50;;;18.10;87.70;;;;;;4997064;28;20043;-85
2021/05/11 14:33:39;;;;;;;2.63;1.30;;;18.00;87.80;;;;;;5008815;28;20056;-83
2021/05/11 14:36:07;;;;;;;2.65;1.27;;;18.00;87.90;;;;;;5006813;28;20050;-84
2021/05/11 14:38:36;;;;;;;2.88;1.30;;;18.00;88.10;;;;;;5011217;28;20050;-82
2021/05/11 14:41:03;;;;;;;2.83;1.20;;;18.00;88.00;;;;;;5011653;28;20119;-83
2021/05/11 14:43:31;;;;;;;3.15;1.00;;;18.00;88.20;;;;;;5012200;28;20130;-83
2021/05/11 14:45:58;;;;;;;3.15;1.10;;;18.00;88.30;;;;;;5004009;28;20874;-83
2021/05/11 14:48:24;;;;;;;2.75;1.10;;;17.90;88.30;;;;;;5008921;28;20054;-83
2021/05/11 14:50:50;;;;;;;3.00;1.00;;;17.90;88.30;;;;;;5007664;28;20049;-83
2021/05/11 14:53:15;;;;;;;2.60;1.00;;;17.90;88.30;;;;;;5011123;28;20057;-83
2021/05/11 14:55:42;;;;;;;1.45;0.82;;;17.90;88.40;;;;;;4995635;28;20054;-83
2021/05/11 14:58:07;;;;;;;1.98;0.90;;;17.90;88.50;;;;;;5008059;28;20068;-83
2021/05/11 15:00:33;;;;;;;2.42;0.90;;;17.90;88.60;;;;;;5011440;28;20478;-84
2021/05/11 15:02:59;;;;;;;1.92;0.77;;;17.90;88.50;;;;;;5010664;28;20069;-85
2021/05/11 15:05:25;;;;;;;1.42;0.70;;;17.90;88.50;;;;;;5008644;28;20125;-84
2021/05/11 15:07:53;;;;;;;1.75;0.80;;;17.90;88.10;;;;;;5007884;28;20471;-83
2021/05/11 15:10:21;;;;;;;2.45;0.80;;;17.90;88.40;;;;;;5012071;28;20400;-84
2021/05/11 15:12:48;;;;;;;2.00;0.75;;;17.90;88.50;;;;;;5012055;28;20058;-84
2021/05/11 15:15:17;;;;;;;1.92;0.80;;;17.90;88.00;;;;;;5009287;28;20045;-85
2021/05/11 15:20:09;;;;;;;1.83;0.90;;;17.90;88.10;;;;;;5009270;28;20049;-84
2021/05/11 15:22:35;;;;;;;1.88;0.80;;;17.90;88.40;;;;;;5011638;28;20406;-84
2021/05/11 15:25:01;;;;;;;2.50;0.93;;;17.90;88.30;;;;;;5005394;28;20042;-84
2021/05/11 15:27:28;;;;;;;3.28;0.70;;;17.90;88.40;;;;;;5007186;28;20057;-85
2021/05/11 15:29:54;;;;;;;1.58;0.70;;;17.90;88.10;;;;;;5001989;28;20481;-83
2021/05/11 15:32:38;;;;;;;2.42;0.82;;;17.80;87.20;;;;;;5011176;28;20053;-84
2021/05/11 15:35:09;;;;;;;2.70;0.70;;;17.80;87.30;;;;;;4995642;28;20081;-84
2021/05/11 15:37:35;;;;;;;2.65;0.60;;;17.80;87.70;;;;;;4993161;28;20050;-84
2021/05/11 15:40:04;;;;;;;1.95;0.80;;;17.80;87.90;;;;;;5008236;28;20053;-84
2021/05/11 15:42:29;;;;;;;2.15;0.80;;;17.80;88.10;;;;;;5012230;28;20057;-87
2021/05/11 15:44:55;;;;;;;1.45;0.70;;;17.80;87.10;;;;;;4996440;28;20057;-88
2021/05/11 15:47:20;;;;;;;2.97;0.90;;;17.80;87.10;;;;;;4996065;28;20046;-87
2021/05/11 15:49:46;;;;;;;3.03;0.80;;;17.70;87.50;;;;;;4995269;28;20061;-88
2021/05/11 15:52:12;;;;;;;2.88;0.80;;;17.70;86.70;;;;;;4996274;28;20085;-87
2021/05/11 15:54:38;;;;;;;4.38;1.10;;;17.70;87.40;;;;;;5002928;28;20497;-82
2021/05/11 15:57:05;;;;;;;2.70;0.85;;;17.70;87.80;;;;;;5010968;28;20060;-85
2021/05/11 15:59:30;;;;;;;2.35;0.90;;;17.70;87.60;;;;;;5014396;28;20046;-83
2021/05/11 16:01:56;;;;;;;2.92;1.00;;;17.60;88.10;;;;;;5015078;28;20531;-83
2021/05/11 16:04:22;;;;;;;3.25;0.90;;;17.60;88.00;;;;;;5014208;28;20125;-88
2021/05/11 16:06:48;;;;;;;2.55;0.90;;;17.60;88.10;;;;;;5015659;28;20097;-87
2021/05/11 16:09:14;;;;;;;2.67;0.90;;;17.60;88.30;;;;;;5015410;28;20050;-92
2021/05/11 16:11:40;;;;;;;3.58;1.08;;;17.60;88.30;;;;;;5026187;28;20073;-92
2021/05/11 16:14:05;;;;;;;2.53;0.95;;;17.60;88.50;;;;;;5025005;28;20049;-93
2021/05/11 16:16:32;;;;;;;2.90;0.95;;;17.60;88.30;;;;;;5257543;23;20029;-92
2021/05/11 16:19:01;;;;;;;2.53;1.00;;;17.60;88.40;;;;;;5041654;28;20060;-91
2021/05/11 16:21:27;;;;;;;3.10;1.20;;;17.60;88.70;;;;;;5034693;28;20089;-95
2021/05/11 16:23:56;;;;;;;3.25;1.10;;;17.60;88.80;;;;;;5036204;28;20066;-91
2021/05/11 16:26:24;;;;;;;2.80;0.98;;;17.60;88.80;;;;;;5029831;28;20128;-91
2021/05/11 16:28:53;;;;;;;3.55;1.20;;;17.60;88.90;;;;;;5031009;28;20132;-93
2021/05/11 16:31:20;;;;;;;2.97;1.20;;;17.60;88.80;;;;;;5038233;28;20136;-96
2021/05/11 16:33:46;;;;;;;2.35;1.08;;;17.50;88.70;;;;;;5038385;28;20052;-93
2021/05/11 16:36:12;;;;;;;2.53;1.00;;;17.50;88.00;;;;;;5037824;28;20049;-90
2021/05/11 16:38:38;;;;;;;3.60;1.33;;;17.50;88.40;;;;;;5035769;28;20045;-94
2021/05/11 16:41:04;;;;;;;2.40;1.20;;;17.50;88.80;;;;;;5036499;28;20050;-91
2021/05/11 16:43:30;;;;;;;2.70;1.10;;;17.50;88.60;;;;;;5032876;28;20041;-85
2021/05/11 16:45:56;;;;;;;4.47;1.48;;;17.50;88.20;;;;;;5019517;28;20379;-87
2021/05/11 16:48:22;;;;;;;3.03;1.20;;;17.50;88.70;;;;;;5017115;28;20414;-86
2021/05/11 16:50:48;;;;;;;2.90;1.13;;;17.40;88.80;;;;;;5033702;28;20052;-86
2021/05/11 16:53:16;;;;;;;3.58;1.20;;;17.40;88.80;;;;;;5032741;28;20136;-86
2021/05/11 16:55:42;;;;;;;4.57;1.30;;;17.40;88.90;;;;;;5033953;28;20064;-86
2021/05/11 16:58:09;;;;;;;3.05;1.10;;;17.40;89.00;;;;;;5034203;28;20057;-85
2021/05/11 17:00:36;;;;;;;3.50;1.27;;;17.40;88.20;;;;;;5033117;28;20088;-86
2021/05/11 17:03:03;;;;;;;3.17;1.10;;;17.30;88.70;;;;;;5034326;28;20053;-86
2021/05/11 17:05:30;;;;;;;2.58;1.30;;;17.40;88.80;;;;;;5031404;28;20042;-84
2021/05/11 17:07:56;;;;;;;2.97;1.20;;;17.30;88.90;;;;;;5031214;28;20099;-87
2021/05/11 17:10:25;;;;;;;3.20;1.35;;;17.30;89.20;;;;;;5033996;28;20076;-86
2021/05/11 17:12:53;;;;;;;2.30;1.25;;;17.30;89.40;;;;;;5032952;28;20107;-85
2021/05/11 17:15:19;;;;;;;3.53;1.38;;;17.30;89.50;;;;;;5034077;28;20053;-87
2021/05/11 17:17:46;;;;;;;3.10;1.30;;;17.30;89.50;;;;;;5033560;28;20104;-88
2021/05/11 17:20:13;;;;;;;3.53;1.60;;;17.30;88.50;;;;;;5016838;28;20046;-87
2021/05/11 17:22:38;;;;;;;2.53;1.23;;;17.20;87.70;;;;;;5014067;28;20054;-87
2021/05/11 17:25:06;;;;;;;3.05;1.30;;;17.20;88.70;;;;;;5028362;28;20398;-92
2021/05/11 17:27:32;;;;;;;3.67;1.40;;;17.20;89.00;;;;;;5032812;28;20045;-89
2021/05/11 17:30:02;;;;;;;3.42;1.33;;;17.20;89.00;;;;;;5033155;28;20121;-85
2021/05/11 17:32:28;;;;;;;3.83;1.45;;;17.10;89.20;;;;;;5030574;28;20049;-85